• Join FlightAware (Why Join?)
  • Login
  • US Flag 
05:28AM EDT


 

Airport Tracker/Info


-or-


 

Live Flight TrackerFlight Track Log ✈ N891CA ✈ 14-Aug-2014 ✈ KPNS - KGNV

Flight Track Log - Related Links

Times and Time Zones

All times are in EDT time to prevent confusion due to time zone crossing. See the N891CA flight status page for this flight to view local times or setup timezone preferences in your user account.

Time Position Orientation Groundspeed Altitude Reporting Facility
EDT Latitude Longitude Course Direction KTS MPH feet Rate Location/Type
12:28AM 30.4842 -87.1925 23° Northeast 119 137 700  Level Jacksonville Center
12:29AM 30.5286 -87.1706 23° Northeast 152 175 3,500 2,040 Climbing Jacksonville Center
12:29AM 30.5394 -87.1636 29° Northeast 149 171 3,800 1,800 Climbing Jacksonville Center
12:30AM 30.5861 -87.1369 26° Northeast 194 223 5,600 1,860 Climbing Jacksonville Center
12:31AM 30.6331 -87.1053 30° Northeast 200 230 7,600 1,920 Climbing Jacksonville Center
12:32AM 30.6519 -87.0433 70° East 186 214 9,500 1,800 Climbing Jacksonville Center
12:33AM 30.6522 -86.9708 90° East 186 214 11,200 1,560 Climbing Jacksonville Center
12:34AM 30.6544 -86.9033 88° East 206 237 12,700 1,500 Climbing Jacksonville Center
12:35AM 30.6544 -86.8333 90° East 206 237 14,300 1,500 Climbing Jacksonville Center
12:36AM 30.6586 -86.7633 86° East 212 244 15,700 1,380 Climbing Jacksonville Center
12:37AM 30.6631 -86.6889 86° East 217 250 17,100 1,380 Climbing Jacksonville Center
12:38AM 30.6589 -86.6186 94° East 217 250 18,500 1,260 Climbing Jacksonville Center
12:39AM 30.6525 -86.5458 96° East 217 250 19,700 1,140 Climbing Jacksonville Center
12:40AM 30.6381 -86.4731 103° East 223 257 20,800 1,140 Climbing Jacksonville Center
12:41AM 30.6231 -86.4047 104° East 223 257 22,000 1,020 Climbing Jacksonville Center
12:42AM 30.6042 -86.3317 107° East 223 257 22,900 900 Climbing Jacksonville Center
12:43AM 30.5894 -86.2611 104° East 229 264 23,800 780 Climbing Jacksonville Center
12:44AM 30.5706 -86.1808 105° East 229 264 24,500 780 Climbing Jacksonville Center
12:45AM 30.5558 -86.1033 102° East 241 277 25,400 900 Climbing Jacksonville Center
12:46AM 30.5411 -86.0231 102° East 246 283 26,400 720 Climbing Jacksonville Center
12:47AM 30.5222 -85.9431 105° East 246 283 26,900 480 Climbing Jacksonville Center
12:48AM 30.5033 -85.8581 104° East 258 297 27,400 600 Climbing Jacksonville Center
12:49AM 30.4867 -85.7708 102° East 264 304 28,200 780 Climbing Jacksonville Center
12:50AM 30.4697 -85.6883 103° East 269 310 29,000 300 Climbing Jacksonville Center
12:51AM 30.4486 -85.5961 105° East 269 310 28,900  Descending Jacksonville Center
12:52AM 30.4278 -85.4992 104° East 288 331 29,000  Climbing Jacksonville Center
12:53AM 30.4067 -85.3997 104° East 307 353 29,000  Level Jacksonville Center
12:54AM 30.3836 -85.2956 104° East 318 366 29,000  Level Jacksonville Center
12:55AM 30.3625 -85.2061 105° East 323 372 29,000  Level Jacksonville Center
12:56AM 30.3392 -85.0997 104° East 323 372 29,000  Level Jacksonville Center
12:57AM 30.3181 -84.9933 103° East 323 372 29,000  Level Jacksonville Center
12:58AM 30.2928 -84.8869 105° East 328 377 29,000 -120 Level Jacksonville Center
12:59AM 30.2714 -84.7806 103° East 333 383 28,800 -660 Descending Jacksonville Center
01:00AM 30.2458 -84.6694 105° East 343 395 27,700 -1,080 Descending Jacksonville Center
01:01AM 30.2181 -84.5536 105° East 355 409 26,700 -1,140 Descending Jacksonville Center
01:02AM 30.1944 -84.4378 103° East 360 414 25,500 -1,200 Descending Jacksonville Center
01:03AM 30.1667 -84.3244 106° East 365 420 24,400 -900 Descending Jacksonville Center
01:04AM 30.1408 -84.2089 104° East 365 420 23,700 -600 Descending Jacksonville Center
01:05AM 30.1147 -84.0908 104° East 360 414 23,200 -360 Descending Jacksonville Center
01:06AM 30.0906 -83.9850 105° East 348 400 23,000 -120 Descending Jacksonville Center
01:07AM 30.0686 -83.8839 104° East 337 388 23,000  Level Jacksonville Center
01:08AM 30.0442 -83.7828 106° East 332 382 23,000  Level Jacksonville Center
01:09AM 30.0219 -83.6842 105° East 321 369 23,000  Level Jacksonville Center
01:10AM 29.9994 -83.5833 104° East 321 369 23,000 -240 Level Jacksonville Center
01:11AM 29.9769 -83.4825 104° East 321 369 22,600 -1,140 Descending Jacksonville Center
01:12AM 29.9503 -83.3769 106° East 321 369 20,800 -1,800 Descending Jacksonville Center
01:13AM 29.9400 -83.3431 109° East 368 423 20,400 -1,620 Descending Jacksonville Center
01:13AM 29.9317 -83.3119 107° East 374 430 19,600 -1,620 Descending Jacksonville Center
01:13AM 29.9256 -83.2642 98° East 343 395 19,200 -1,800 Descending Jacksonville Center
01:14AM 29.9028 -83.1850 108° East 359 413 17,800 -1,500 Descending Jacksonville Center
01:14AM 29.9008 -83.1658 97° East 358 412 17,700 -1,620 Descending Jacksonville Center
01:15AM 29.8781 -83.0769 106° East 344 396 16,200 -1,740 Descending Jacksonville Center
01:15AM 29.8739 -83.0603 106° East 353 406 16,000 -1,800 Descending Jacksonville Center
01:16AM 29.8511 -82.9667 106° East 329 379 14,400 -1,800 Descending Jacksonville Center
01:16AM 29.8511 -82.9597 90° East 338 389 14,200 -1,800 Descending Jacksonville Center
01:17AM 29.8303 -82.8664 104° East 324 373 12,600 -1,800 Descending Jacksonville Center
01:17AM 29.8303 -82.8592 90° East 331 381 12,400 -1,920 Descending Jacksonville Center
01:18AM 29.8092 -82.7706 105° East 311 358 10,700 -1,920 Descending Jacksonville Center
01:18AM 29.8092 -82.7633 90° East 319 367 10,500 -1,800 Descending Jacksonville Center
01:19AM 29.7861 -82.6797 108° East 295 339 8,900 -1,800 Descending Jacksonville Center
01:19AM 29.7861 -82.6725 90° East 308 354 8,700 -1,680 Descending Jacksonville Center
01:20AM 29.7631 -82.5958 109° East 262 302 7,200 -1,620 Descending Jacksonville Center
01:20AM 29.7631 -82.5864 90° East 293 337 7,100 -1,980 Descending Jacksonville Center
01:21AM 29.7397 -82.5169 111° Southeast 269 310 5,200 -2,280 Descending Jacksonville Center
01:22AM 29.7167 -82.4311 107° East 252 290 2,900 -1,740 Descending Jacksonville Center
01:23AM 29.7039 -82.3642 102° East 211 243 1,700 -1,140 Descending Jacksonville Center
01:24AM 29.6953 -82.3189 102° East 149 171 800 -1,020 Descending Jacksonville Center
01:26AM 29.6833 -82.2667 103° East  Level FlightAware Approximate